createdAt,value
2018-12-02T00:00:17.142Z,92.50
2018-12-02T00:02:45.143Z,92.50
2018-12-02T00:05:13.147Z,92.70
2018-12-02T00:07:41.168Z,92.80
2018-12-02T00:10:10.632Z,92.70
2018-12-02T00:12:38.924Z,92.70
2018-12-02T00:15:11.724Z,92.90
2018-12-02T00:17:40.036Z,93.00
2018-12-02T00:20:09.903Z,93.10
2018-12-02T00:22:38.101Z,93.00
2018-12-02T00:25:07.500Z,93.00
2018-12-02T00:27:35.528Z,92.90
2018-12-02T00:30:06.469Z,92.90
2018-12-02T00:32:34.443Z,92.90
2018-12-02T00:35:02.433Z,92.90
2018-12-02T00:37:30.415Z,92.90
2018-12-02T00:39:58.465Z,93.00
2018-12-02T00:42:26.663Z,93.10
2018-12-02T00:44:54.636Z,93.10
2018-12-02T00:47:22.648Z,93.20
2018-12-02T00:49:50.632Z,93.30
2018-12-02T00:52:18.630Z,93.30
2018-12-02T00:54:46.632Z,93.40
2018-12-02T00:57:14.628Z,93.60
2018-12-02T00:59:42.764Z,93.70
2018-12-02T01:02:10.786Z,93.70
2018-12-02T01:04:39.782Z,93.60
2018-12-02T01:07:07.788Z,93.60
2018-12-02T01:09:35.815Z,93.50
2018-12-02T01:12:03.909Z,93.90
2018-12-02T01:14:31.892Z,93.80
2018-12-02T01:16:59.893Z,94.00
2018-12-02T01:19:27.894Z,94.00
2018-12-02T01:21:55.946Z,93.90
2018-12-02T01:24:23.997Z,93.90
2018-12-02T01:26:51.977Z,93.80
2018-12-02T01:29:19.981Z,93.70
2018-12-02T01:31:47.976Z,93.70
2018-12-02T01:34:15.956Z,93.60
2018-12-02T01:36:44.009Z,93.80
2018-12-02T01:39:12.012Z,93.80
2018-12-02T01:41:40.140Z,93.80
2018-12-02T01:44:08.129Z,93.80
2018-12-02T01:46:36.153Z,93.80
2018-12-02T01:49:04.161Z,93.90
2018-12-02T01:51:32.187Z,94.00
2018-12-02T01:54:00.194Z,93.90
2018-12-02T01:56:28.219Z,93.90
2018-12-02T01:58:56.212Z,94.00
2018-12-02T02:01:24.215Z,94.40
2018-12-02T02:03:52.208Z,94.80
2018-12-02T02:06:20.199Z,95.10
2018-12-02T02:08:48.202Z,95.20
2018-12-02T02:11:16.274Z,95.10
2018-12-02T02:13:44.458Z,95.20
2018-12-02T02:16:12.490Z,95.40
2018-12-02T02:18:40.499Z,95.50
2018-12-02T02:21:08.493Z,95.30
2018-12-02T02:23:36.565Z,95.20
2018-12-02T02:26:04.745Z,95.20
2018-12-02T02:28:32.752Z,94.80
2018-12-02T02:31:00.773Z,95.10
2018-12-02T02:33:28.773Z,95.00
2018-12-02T02:35:56.768Z,95.00
2018-12-02T02:38:24.765Z,94.90
2018-12-02T02:40:52.756Z,94.90
2018-12-02T02:43:20.728Z,94.90
2018-12-02T02:45:48.740Z,94.90
2018-12-02T02:48:16.773Z,94.90
2018-12-02T02:50:44.849Z,94.80
2018-12-02T02:53:12.855Z,94.70
2018-12-02T02:55:40.926Z,94.80
2018-12-02T02:58:08.904Z,94.80
2018-12-02T03:00:36.971Z,94.90
2018-12-02T03:03:05.047Z,94.90
2018-12-02T03:05:33.027Z,95.00
2018-12-02T03:08:01.054Z,94.90
2018-12-02T03:10:29.058Z,94.90
2018-12-02T03:12:57.084Z,95.00
2018-12-02T03:15:25.074Z,95.00
2018-12-02T03:17:53.072Z,95.10
2018-12-02T03:20:21.999Z,95.00
2018-12-02T03:22:50.937Z,95.00
2018-12-02T03:25:19.739Z,95.00
2018-12-02T03:27:47.831Z,95.00
2018-12-02T03:30:16.909Z,95.00
2018-12-02T03:32:44.913Z,95.00
2018-12-02T03:35:13.955Z,95.00
2018-12-02T03:37:42.005Z,95.00
2018-12-02T03:40:13.908Z,95.10
2018-12-02T03:42:41.919Z,95.10
2018-12-02T03:45:11.886Z,95.10
2018-12-02T03:47:39.888Z,95.20
2018-12-02T03:50:18.105Z,95.20
2018-12-02T03:52:45.920Z,95.30
2018-12-02T03:55:13.952Z,95.30
2018-12-02T03:57:41.989Z,95.40
2018-12-02T04:00:15.030Z,95.40
2018-12-02T04:02:43.085Z,95.40
2018-12-02T04:05:12.152Z,95.50
2018-12-02T04:07:40.128Z,95.50
2018-12-02T04:10:09.694Z,95.40
2018-12-02T04:12:37.704Z,95.40
2018-12-02T04:15:08.501Z,95.40
2018-12-02T04:17:36.526Z,95.40
2018-12-02T04:20:05.805Z,95.40
2018-12-02T04:22:33.785Z,95.40
2018-12-02T04:25:01.786Z,95.40
2018-12-02T04:27:29.787Z,95.30
2018-12-02T04:29:57.789Z,95.40
2018-12-02T04:32:25.815Z,95.50
2018-12-02T04:34:53.832Z,95.60
2018-12-02T04:37:22.112Z,95.70
2018-12-02T04:39:50.181Z,96.10
2018-12-02T04:42:18.181Z,96.10
2018-12-02T04:44:46.174Z,95.80
2018-12-02T04:47:14.180Z,95.70
2018-12-02T04:49:42.162Z,95.70
2018-12-02T04:52:10.144Z,95.80
2018-12-02T04:54:38.204Z,95.90
2018-12-02T04:57:06.193Z,95.90
2018-12-02T04:59:34.195Z,96.00
2018-12-02T05:02:02.211Z,96.00
2018-12-02T05:04:30.199Z,96.00
2018-12-02T05:06:58.190Z,96.00
2018-12-02T05:09:26.195Z,96.00
2018-12-02T05:11:54.283Z,96.00
2018-12-02T05:14:25.244Z,96.00
2018-12-02T05:16:53.294Z,96.00
2018-12-02T05:19:21.322Z,96.00
2018-12-02T05:21:49.379Z,96.20
2018-12-02T05:24:17.375Z,96.00
2018-12-02T05:26:45.396Z,95.90
2018-12-02T05:29:13.389Z,95.90
2018-12-02T05:31:41.516Z,95.90
2018-12-02T05:34:09.544Z,95.90
2018-12-02T05:36:37.558Z,96.00
2018-12-02T05:39:08.555Z,96.00
2018-12-02T05:41:42.201Z,96.20
2018-12-02T05:44:10.229Z,96.20
2018-12-02T05:46:38.225Z,96.50
2018-12-02T05:49:06.208Z,96.20
2018-12-02T05:51:34.185Z,96.20
2018-12-02T05:54:02.149Z,96.20
2018-12-02T05:56:30.137Z,96.20
2018-12-02T05:58:58.127Z,96.20
2018-12-02T06:01:26.275Z,96.20
2018-12-02T06:03:54.320Z,96.10
2018-12-02T06:06:22.320Z,96.60
2018-12-02T06:08:50.316Z,96.40
2018-12-02T06:11:18.316Z,96.50
2018-12-02T06:13:46.317Z,96.50
2018-12-02T06:16:14.319Z,96.40
2018-12-02T06:18:42.325Z,96.50
2018-12-02T06:21:10.324Z,96.70
2018-12-02T06:23:38.338Z,96.70
2018-12-02T06:26:06.446Z,96.70
2018-12-02T06:28:34.437Z,96.60
2018-12-02T06:31:02.464Z,96.60
2018-12-02T06:33:30.472Z,96.60
2018-12-02T06:35:58.499Z,96.60
2018-12-02T06:38:26.526Z,96.70
2018-12-02T06:40:54.646Z,96.80
2018-12-02T06:43:22.663Z,96.90
2018-12-02T06:45:50.640Z,96.80
2018-12-02T06:48:18.693Z,96.80
2018-12-02T06:50:46.709Z,96.70
2018-12-02T06:53:14.714Z,96.70
2018-12-02T06:55:56.815Z,96.90
2018-12-02T06:59:41.397Z,97.00
2018-12-02T07:02:29.839Z,97.00
2018-12-02T07:04:57.860Z,97.00
2018-12-02T07:07:25.860Z,97.00
2018-12-02T07:09:53.872Z,97.10
2018-12-02T07:12:21.872Z,97.00
2018-12-02T07:14:49.958Z,97.30
2018-12-02T07:17:19.349Z,97.00
2018-12-02T07:19:49.776Z,97.00
2018-12-02T07:22:24.978Z,96.90
2018-12-02T07:24:56.065Z,96.90
2018-12-02T07:27:24.081Z,96.90
2018-12-02T07:29:52.132Z,97.00
2018-12-02T07:32:20.139Z,97.20
2018-12-02T07:34:48.143Z,97.40
2018-12-02T07:37:18.560Z,97.60
2018-12-02T07:40:53.191Z,98.00
2018-12-02T07:43:21.185Z,97.80
2018-12-02T07:45:49.186Z,97.80
2018-12-02T07:48:17.168Z,97.80
2018-12-02T07:50:45.163Z,98.20
2018-12-02T07:53:13.152Z,97.90
2018-12-02T07:55:41.276Z,97.80
2018-12-02T07:58:14.172Z,97.70
2018-12-02T08:00:42.432Z,97.50
2018-12-02T08:03:10.466Z,97.40
2018-12-02T08:05:38.476Z,97.20
2018-12-02T08:08:06.582Z,97.10
2018-12-02T08:10:34.593Z,96.90
2018-12-02T08:13:03.860Z,96.70
2018-12-02T08:15:31.945Z,96.50
2018-12-02T08:17:59.963Z,96.40
2018-12-02T08:20:27.949Z,96.00
2018-12-02T08:22:55.968Z,95.90
2018-12-02T08:25:23.965Z,95.90
2018-12-02T08:27:51.952Z,95.60
2018-12-02T08:30:21.084Z,95.50
2018-12-02T08:32:49.109Z,95.50
2018-12-02T08:35:18.360Z,95.40
2018-12-02T08:37:47.549Z,95.20
2018-12-02T08:40:15.624Z,95.10
2018-12-02T08:42:43.658Z,95.00
2018-12-02T08:45:18.584Z,94.70
2018-12-02T08:47:46.616Z,94.30
2018-12-02T08:50:17.228Z,94.10
2018-12-02T08:52:46.109Z,93.90
2018-12-02T08:55:15.314Z,94.00
2018-12-02T08:57:43.464Z,94.10
2018-12-02T09:00:15.345Z,94.10
2018-12-02T09:02:44.444Z,94.10
2018-12-02T09:05:14.564Z,94.30
2018-12-02T09:07:42.953Z,94.20
2018-12-02T09:10:15.394Z,94.10
2018-12-02T09:12:43.507Z,93.90
2018-12-02T09:15:11.488Z,93.70
2018-12-02T09:17:39.508Z,93.50
2018-12-02T09:20:17.144Z,93.40
2018-12-02T09:22:45.188Z,93.70
2018-12-02T09:25:13.335Z,93.90
2018-12-02T09:27:41.524Z,94.10
2018-12-02T09:30:14.728Z,94.30
2018-12-02T09:32:43.001Z,94.20
2018-12-02T09:35:11.233Z,94.10
2018-12-02T09:37:39.263Z,94.10
2018-12-02T09:40:12.252Z,93.90
2018-12-02T09:42:41.016Z,93.90
2018-12-02T09:45:11.376Z,93.70
2018-12-02T09:47:39.607Z,93.20
2018-12-02T09:50:11.179Z,93.30
2018-12-02T09:52:39.339Z,93.50
2018-12-02T09:55:11.167Z,93.80
2018-12-02T09:57:39.601Z,94.10
2018-12-02T10:00:13.426Z,94.30
2018-12-02T10:02:42.127Z,94.80
2018-12-02T10:05:10.718Z,95.00
2018-12-02T10:07:39.031Z,95.20
2018-12-02T10:10:22.106Z,95.30
2018-12-02T10:12:47.773Z,95.40
2018-12-02T10:15:16.585Z,95.30
2018-12-02T10:17:45.049Z,95.00
2018-12-02T10:20:15.389Z,94.60
2018-12-02T10:22:44.783Z,94.50
2018-12-02T10:25:14.351Z,94.20
2018-12-02T10:27:42.420Z,94.00
2018-12-02T10:30:12.903Z,93.90
2018-12-02T10:32:40.902Z,93.70
2018-12-02T10:35:08.986Z,93.50
2018-12-02T10:37:37.028Z,93.30
2018-12-02T10:40:13.851Z,93.10
2018-12-02T10:42:41.993Z,93.00
2018-12-02T10:45:12.985Z,92.90
2018-12-02T10:47:41.184Z,92.90
2018-12-02T10:50:14.433Z,92.90
2018-12-02T10:52:42.450Z,92.90
2018-12-02T10:55:29.208Z,92.90
2018-12-02T10:57:57.266Z,92.90
2018-12-02T11:00:30.868Z,92.60
2018-12-02T11:02:58.860Z,92.30
2018-12-02T11:05:26.875Z,92.00
2018-12-02T11:07:54.862Z,91.60
2018-12-02T11:10:22.924Z,91.40
2018-12-02T11:12:50.925Z,91.20
2018-12-02T11:15:18.912Z,90.90
2018-12-02T11:17:47.012Z,90.90
2018-12-02T11:20:15.789Z,90.70
2018-12-02T11:22:43.785Z,90.60
2018-12-02T11:25:13.796Z,90.60
2018-12-02T11:27:41.828Z,90.50
2018-12-02T11:30:11.968Z,90.70
2018-12-02T11:32:40.236Z,90.90
2018-12-02T11:35:11.137Z,90.90
2018-12-02T11:37:39.384Z,90.80
2018-12-02T11:40:09.721Z,90.90
2018-12-02T11:42:37.909Z,91.00
2018-12-02T11:45:08.345Z,90.70
2018-12-02T11:47:36.333Z,90.50
2018-12-02T11:50:22.092Z,90.20
2018-12-02T11:52:50.100Z,89.80
2018-12-02T11:55:19.076Z,90.00
2018-12-02T11:57:47.113Z,90.00
2018-12-02T12:00:18.096Z,90.50
2018-12-02T12:02:46.100Z,90.50
2018-12-02T12:05:14.222Z,90.40
2018-12-02T12:07:42.984Z,90.90
2018-12-02T12:10:15.172Z,90.80
2018-12-02T12:12:43.356Z,91.10
2018-12-02T12:15:13.488Z,91.10
2018-12-02T12:17:42.554Z,91.10
2018-12-02T12:20:16.707Z,91.00
2018-12-02T12:22:45.500Z,90.80
2018-12-02T12:25:14.317Z,90.70
2018-12-02T12:27:42.453Z,90.70
2018-12-02T12:30:15.653Z,90.80
2018-12-02T12:32:44.920Z,90.50
2018-12-02T12:35:14.506Z,90.30
2018-12-02T12:37:42.609Z,90.10
2018-12-02T12:40:17.945Z,89.20
2018-12-02T12:42:48.680Z,89.70
2018-12-02T12:45:16.682Z,88.80
2018-12-02T12:47:44.725Z,89.50
2018-12-02T12:50:14.635Z,89.70
2018-12-02T12:52:42.647Z,90.30
2018-12-02T12:55:12.795Z,90.30
2018-12-02T12:57:40.792Z,89.60
2018-12-02T13:00:13.079Z,90.20
2018-12-02T13:02:41.131Z,90.30
2018-12-02T13:05:12.412Z,90.00
2018-12-02T13:07:40.452Z,90.00
2018-12-02T13:10:12.564Z,90.70
2018-12-02T13:12:40.652Z,91.20
2018-12-02T13:15:10.763Z,91.30
2018-12-02T13:17:39.385Z,91.80
2018-12-02T13:20:16.484Z,91.70
2018-12-02T13:22:44.688Z,91.60
2018-12-02T13:25:13.792Z,91.20
2018-12-02T13:27:42.733Z,90.70
2018-12-02T13:30:15.033Z,90.90
2018-12-02T13:32:43.857Z,91.00
2018-12-02T13:35:11.951Z,91.00
2018-12-02T13:37:39.958Z,91.20
2018-12-02T13:40:24.636Z,91.30
2018-12-02T13:43:01.756Z,91.70
2018-12-02T13:45:30.585Z,92.10
2018-12-02T13:47:58.587Z,92.40
2018-12-02T13:50:26.792Z,92.60
2018-12-02T13:52:55.706Z,92.80
2018-12-02T13:55:28.594Z,93.00
2018-12-02T13:57:57.736Z,93.10
2018-12-02T14:00:26.673Z,93.30
2018-12-02T14:03:04.237Z,93.50
2018-12-02T14:05:33.148Z,93.60
2018-12-02T14:08:01.703Z,93.80
2018-12-02T14:10:30.236Z,93.90
2018-12-02T14:13:00.137Z,94.10
2018-12-02T14:15:40.078Z,94.20
2018-12-02T14:18:19.490Z,94.40
2018-12-02T14:20:47.581Z,94.40
2018-12-02T14:23:16.097Z,94.50
2018-12-02T14:25:44.613Z,94.50
2018-12-02T14:28:14.408Z,94.70
2018-12-02T14:30:43.044Z,94.70
2018-12-02T14:33:12.201Z,94.80
2018-12-02T14:35:41.149Z,94.90
2018-12-02T14:38:09.556Z,94.90
2018-12-02T14:40:37.848Z,94.90
2018-12-02T14:43:06.696Z,94.90
2018-12-02T14:45:35.362Z,95.20
2018-12-02T14:48:03.719Z,95.50
2018-12-02T14:50:32.473Z,95.60
2018-12-02T14:53:05.803Z,95.60
2018-12-02T14:55:34.404Z,95.60
2018-12-02T14:58:02.389Z,95.50
2018-12-02T15:00:30.821Z,95.40
2018-12-02T15:03:04.440Z,95.30
2018-12-02T15:05:32.872Z,95.30
2018-12-02T15:08:05.431Z,95.30
2018-12-02T15:10:34.044Z,95.10
2018-12-02T15:13:02.670Z,95.10
2018-12-02T15:15:31.516Z,95.10
2018-12-02T15:17:59.609Z,95.20
2018-12-02T15:20:27.634Z,95.20
2018-12-02T15:22:55.624Z,95.30
2018-12-02T15:25:23.600Z,95.40
2018-12-02T15:27:51.610Z,95.40
2018-12-02T15:30:19.734Z,95.40
2018-12-02T15:32:49.880Z,95.40
2018-12-02T15:35:18.411Z,95.30
2018-12-02T15:37:46.448Z,95.40
2018-12-02T15:40:15.534Z,95.40
2018-12-02T15:42:45.962Z,95.50
2018-12-02T15:45:14.396Z,95.60
2018-12-02T15:47:42.940Z,95.70
2018-12-02T15:50:15.036Z,95.80
2018-12-02T15:52:43.105Z,96.00
2018-12-02T15:55:20.417Z,96.00
2018-12-02T15:57:48.428Z,96.00
2018-12-02T16:00:17.873Z,96.00
2018-12-02T16:02:45.869Z,96.00
2018-12-02T16:05:13.885Z,96.00
2018-12-02T16:07:41.896Z,96.10
2018-12-02T16:10:11.181Z,96.30
2018-12-02T16:12:39.477Z,96.50
2018-12-02T16:15:13.099Z,96.50
2018-12-02T16:17:41.173Z,96.50
2018-12-02T16:20:12.373Z,96.50
2018-12-02T16:22:40.437Z,96.50
2018-12-02T16:25:09.231Z,96.50
2018-12-02T16:27:37.237Z,96.50
2018-12-02T16:30:15.823Z,96.50
2018-12-02T16:32:46.141Z,96.90
2018-12-02T16:35:14.884Z,96.60
2018-12-02T16:37:43.209Z,96.80
2018-12-02T16:40:12.628Z,97.00
2018-12-02T16:42:40.671Z,97.30
2018-12-02T16:45:10.208Z,97.10
2018-12-02T16:47:38.312Z,97.10
2018-12-02T16:50:14.472Z,97.20
2018-12-02T16:52:42.577Z,97.20
2018-12-02T16:55:15.361Z,97.10
2018-12-02T16:57:44.473Z,97.10
2018-12-02T17:00:16.216Z,97.00
2018-12-02T17:02:44.238Z,96.90
2018-12-02T17:05:12.296Z,96.90
2018-12-02T17:07:40.297Z,97.00
2018-12-02T17:10:09.922Z,97.00
2018-12-02T17:12:37.938Z,97.00
2018-12-02T17:15:14.788Z,97.00
2018-12-02T17:17:42.855Z,97.00
2018-12-02T17:20:12.362Z,97.00
2018-12-02T17:22:40.420Z,97.00
2018-12-02T17:25:10.006Z,97.00
2018-12-02T17:27:38.495Z,97.00
2018-12-02T17:30:25.447Z,97.00
2018-12-02T17:32:53.440Z,96.90
2018-12-02T17:35:21.442Z,96.70
2018-12-02T17:37:49.501Z,96.60
2018-12-02T17:40:20.377Z,96.50
2018-12-02T17:42:48.392Z,96.40
2018-12-02T17:45:16.401Z,96.40
2018-12-02T17:47:44.379Z,96.50
2018-12-02T17:50:14.963Z,96.30
2018-12-02T17:52:44.212Z,96.40
2018-12-02T17:55:12.193Z,96.30
2018-12-02T17:57:40.167Z,96.40
2018-12-02T18:00:12.446Z,96.40
2018-12-02T18:02:40.586Z,96.50
2018-12-02T18:05:10.884Z,96.50
2018-12-02T18:07:38.864Z,96.50
2018-12-02T18:10:09.854Z,96.60
2018-12-02T18:12:38.103Z,96.70
2018-12-02T18:15:09.356Z,96.80
2018-12-02T18:17:37.463Z,96.80
2018-12-02T18:20:07.536Z,96.70
2018-12-02T18:22:35.516Z,96.80
2018-12-02T18:25:04.381Z,96.80
2018-12-02T18:27:32.541Z,96.80
2018-12-02T18:30:00.922Z,96.80
2018-12-02T18:32:28.922Z,96.80
2018-12-02T18:34:57.035Z,96.70
2018-12-02T18:37:25.099Z,96.80
2018-12-02T18:39:54.177Z,96.80
2018-12-02T18:42:22.348Z,96.90
2018-12-02T18:44:50.341Z,97.00
2018-12-02T18:47:18.482Z,97.00
2018-12-02T18:49:46.476Z,97.00
2018-12-02T18:52:14.510Z,97.00
2018-12-02T18:54:42.741Z,97.00
2018-12-02T18:57:10.860Z,97.00
2018-12-02T18:59:38.845Z,97.00
2018-12-02T19:02:07.001Z,97.00
2018-12-02T19:04:35.072Z,97.00
2018-12-02T19:07:03.612Z,97.10
2018-12-02T19:09:31.593Z,97.00
2018-12-02T19:11:59.572Z,97.00
2018-12-02T19:14:27.540Z,96.90
2018-12-02T19:16:55.535Z,96.90
2018-12-02T19:19:23.576Z,96.80
2018-12-02T19:21:51.651Z,96.70
2018-12-02T19:24:19.641Z,96.70
2018-12-02T19:26:47.625Z,96.70
2018-12-02T19:29:15.635Z,96.60
2018-12-02T19:31:43.619Z,96.60
2018-12-02T19:34:11.630Z,96.80
2018-12-02T19:36:44.095Z,96.50
2018-12-02T19:39:12.115Z,96.50
2018-12-02T19:41:40.146Z,96.70
2018-12-02T19:44:08.182Z,96.40
2018-12-02T19:46:36.284Z,96.20
2018-12-02T19:49:04.516Z,96.10
2018-12-02T19:51:32.541Z,96.10
2018-12-02T19:54:00.588Z,96.00
2018-12-02T19:56:28.716Z,96.10
2018-12-02T19:58:56.813Z,96.10
2018-12-02T20:01:24.932Z,96.10
2018-12-02T20:03:52.994Z,96.10
2018-12-02T20:06:21.249Z,96.10
2018-12-02T20:08:49.394Z,96.10
2018-12-02T20:11:17.524Z,96.10
2018-12-02T20:13:45.753Z,96.00
2018-12-02T20:16:16.928Z,96.00
2018-12-02T20:18:45.178Z,96.00
2018-12-02T20:21:13.388Z,96.00
2018-12-02T20:23:46.889Z,95.90
2018-12-02T20:26:15.056Z,96.20
2018-12-02T20:28:45.625Z,95.90
2018-12-02T20:31:16.460Z,96.00
2018-12-02T20:33:44.459Z,96.00
2018-12-02T20:36:12.457Z,95.90
2018-12-02T20:38:40.629Z,95.90
2018-12-02T20:41:08.784Z,96.30
2018-12-02T20:43:36.869Z,95.90
2018-12-02T20:46:05.100Z,95.90
2018-12-02T20:48:33.920Z,95.90
2018-12-02T20:51:01.924Z,95.90
2018-12-02T20:53:30.229Z,95.80
2018-12-02T20:55:58.478Z,95.80
2018-12-02T20:58:26.568Z,96.00
2018-12-02T21:00:54.642Z,95.80
2018-12-02T21:03:25.365Z,95.80
2018-12-02T21:06:02.378Z,95.80
2018-12-02T21:08:30.466Z,95.80
2018-12-02T21:10:58.576Z,95.70
2018-12-02T21:13:26.656Z,95.60
2018-12-02T21:15:55.608Z,95.60
2018-12-02T21:18:23.741Z,95.60
2018-12-02T21:20:51.833Z,95.70
2018-12-02T21:23:19.869Z,95.70
2018-12-02T21:25:48.779Z,95.80
2018-12-02T21:28:17.894Z,95.80
2018-12-02T21:30:46.102Z,95.70
2018-12-02T21:33:14.181Z,95.80
2018-12-02T21:35:42.312Z,95.90
2018-12-02T21:38:10.427Z,96.00
2018-12-02T21:40:38.472Z,96.10
2018-12-02T21:43:06.612Z,96.20
2018-12-02T21:45:35.283Z,96.30
2018-12-02T21:48:05.341Z,96.30
2018-12-02T21:50:34.004Z,96.30
2018-12-02T21:53:02.165Z,96.30
2018-12-02T21:55:30.329Z,96.40
2018-12-02T21:57:58.404Z,96.40
2018-12-02T22:00:31.934Z,96.50
2018-12-02T22:03:00.033Z,96.60
2018-12-02T22:05:28.121Z,97.00
2018-12-02T22:07:56.203Z,96.60
2018-12-02T22:10:26.649Z,96.60
2018-12-02T22:12:54.708Z,96.70
2018-12-02T22:15:22.757Z,96.90
2018-12-02T22:17:50.833Z,96.50
2018-12-02T22:20:18.968Z,96.50
2018-12-02T22:22:47.041Z,96.50
2018-12-02T22:25:17.762Z,96.40
2018-12-02T22:27:47.996Z,96.40
2018-12-02T22:30:18.217Z,96.40
2018-12-02T22:32:46.304Z,96.40
2018-12-02T22:35:15.046Z,96.30
2018-12-02T22:37:43.817Z,96.30
2018-12-02T22:40:14.158Z,96.30
2018-12-02T22:42:42.267Z,96.20
2018-12-02T22:45:13.771Z,96.40
2018-12-02T22:47:41.891Z,96.10
2018-12-02T22:50:13.930Z,96.10
2018-12-02T22:52:42.312Z,96.10
2018-12-02T22:55:10.940Z,96.10
2018-12-02T22:57:39.065Z,96.10
2018-12-02T23:00:18.328Z,96.10
2018-12-02T23:02:54.165Z,96.20
2018-12-02T23:05:22.382Z,96.10
2018-12-02T23:07:50.609Z,96.10
2018-12-02T23:10:18.757Z,96.10
2018-12-02T23:12:46.867Z,96.10
2018-12-02T23:15:15.024Z,96.10
2018-12-02T23:17:43.156Z,96.20
2018-12-02T23:20:11.762Z,96.20
2018-12-02T23:22:39.824Z,96.20
2018-12-02T23:25:09.336Z,96.30
2018-12-02T23:27:37.516Z,96.30
2018-12-02T23:30:11.541Z,96.50
2018-12-02T23:32:39.700Z,96.40
2018-12-02T23:35:07.926Z,96.40
2018-12-02T23:37:36.784Z,96.30
2018-12-02T23:40:08.217Z,96.30
2018-12-02T23:42:37.219Z,96.30
2018-12-02T23:45:08.074Z,96.20
2018-12-02T23:47:36.529Z,96.20
2018-12-02T23:50:06.853Z,96.20
2018-12-02T23:52:35.140Z,96.20
2018-12-02T23:55:03.469Z,96.20
2018-12-02T23:57:31.657Z,96.30
2018-12-02T23:59:59.797Z,96.30
